createdAt,value
2018-06-21T00:01:18.696Z,18.10
2018-06-21T00:03:47.095Z,21.97
2018-06-21T00:06:15.537Z,19.60
2018-06-21T00:08:43.969Z,23.07
2018-06-21T00:11:12.382Z,20.20
2018-06-21T00:13:40.904Z,19.57
2018-06-21T00:16:09.338Z,15.83
2018-06-21T00:18:37.760Z,21.97
2018-06-21T00:21:06.441Z,21.67
2018-06-21T00:23:34.977Z,22.97
2018-06-21T00:26:03.399Z,20.90
2018-06-21T00:28:31.840Z,21.17
2018-06-21T00:31:00.237Z,24.60
2018-06-21T00:33:28.646Z,26.00
2018-06-21T00:35:57.122Z,21.03
2018-06-21T00:38:25.541Z,20.33
2018-06-21T00:40:54.012Z,18.50
2018-06-21T00:43:22.441Z,18.67
2018-06-21T00:45:51.098Z,21.03
2018-06-21T00:48:19.480Z,20.87
2018-06-21T00:50:47.897Z,19.97
2018-06-21T00:53:16.280Z,20.80
2018-06-21T00:55:50.148Z,21.63
2018-06-21T00:58:18.549Z,19.40
2018-06-21T01:00:46.900Z,19.53
2018-06-21T01:03:15.264Z,23.10
2018-06-21T01:05:43.602Z,20.83
2018-06-21T01:08:11.945Z,21.33
2018-06-21T01:10:41.460Z,25.13
2018-06-21T01:13:09.885Z,25.73
2018-06-21T01:15:38.245Z,26.17
2018-06-21T01:18:06.612Z,20.27
2018-06-21T01:20:35.366Z,22.03
2018-06-21T01:23:03.728Z,22.40
2018-06-21T01:25:32.175Z,22.83
2018-06-21T01:28:00.694Z,21.20
2018-06-21T01:30:29.059Z,19.23
2018-06-21T01:32:57.425Z,23.87
2018-06-21T01:35:25.985Z,21.60
2018-06-21T01:37:54.376Z,28.70
2018-06-21T01:40:22.820Z,23.73
2018-06-21T01:42:50.932Z,18.47
2018-06-21T01:45:19.764Z,19.93
2018-06-21T01:47:48.141Z,22.53
2018-06-21T01:50:16.517Z,17.93
2018-06-21T01:52:44.883Z,24.17
2018-06-21T01:55:13.281Z,17.93
2018-06-21T01:57:41.650Z,19.23
2018-06-21T02:00:10.021Z,21.03
2018-06-21T02:02:38.378Z,18.93
2018-06-21T02:05:06.806Z,19.97
2018-06-21T02:07:35.161Z,21.37
2018-06-21T02:10:03.593Z,20.17
2018-06-21T02:12:31.952Z,16.80
2018-06-21T02:15:00.387Z,17.40
2018-06-21T02:17:29.502Z,16.37
2018-06-21T02:19:57.816Z,19.90
2018-06-21T02:22:26.218Z,15.57
2018-06-21T02:24:54.611Z,19.00
2018-06-21T02:27:22.981Z,16.17
2018-06-21T02:29:51.366Z,12.47
2018-06-21T02:32:19.792Z,10.87
2018-06-21T02:34:48.643Z,12.13
2018-06-21T02:37:17.100Z,7.77
2018-06-21T02:39:45.444Z,9.53
2018-06-21T02:42:13.826Z,7.30
2018-06-21T02:44:42.401Z,7.37
2018-06-21T02:47:10.756Z,11.23
2018-06-21T02:49:39.171Z,8.10
2018-06-21T02:52:07.561Z,9.43
2018-06-21T02:54:35.939Z,9.47
2018-06-21T02:57:04.379Z,10.10
2018-06-21T02:59:32.752Z,6.10
2018-06-21T03:02:01.520Z,5.33
2018-06-21T03:04:29.982Z,8.17
2018-06-21T03:06:58.333Z,7.23
2018-06-21T03:09:26.735Z,5.27
2018-06-21T03:11:55.153Z,9.53
2018-06-21T03:14:23.547Z,6.90
2018-06-21T03:16:51.936Z,10.90
2018-06-21T03:19:20.058Z,8.57
2018-06-21T03:21:48.440Z,11.50
2018-06-21T03:24:16.832Z,7.03
2018-06-21T03:26:45.248Z,8.30
2018-06-21T03:29:13.619Z,5.97
2018-06-21T03:31:42.013Z,11.13
2018-06-21T03:34:10.749Z,6.47
2018-06-21T03:36:39.144Z,6.30
2018-06-21T03:39:07.704Z,7.33
2018-06-21T03:41:36.186Z,7.50
2018-06-21T03:44:04.590Z,6.27
2018-06-21T03:46:32.958Z,11.53
2018-06-21T03:49:01.385Z,8.07
2018-06-21T03:51:29.839Z,6.93
2018-06-21T03:53:58.173Z,8.37
2018-06-21T03:56:26.728Z,6.93
2018-06-21T03:58:55.175Z,7.90
2018-06-21T04:01:23.614Z,8.53
2018-06-21T04:03:52.044Z,9.03
2018-06-21T04:06:20.175Z,6.33
2018-06-21T04:08:48.623Z,7.17
2018-06-21T04:11:17.003Z,8.37
2018-06-21T04:13:45.416Z,8.63
2018-06-21T04:16:13.809Z,6.20
2018-06-21T04:18:42.204Z,8.93
2018-06-21T04:21:10.585Z,7.83
2018-06-21T04:23:39.021Z,11.40
2018-06-21T04:26:07.523Z,8.33
2018-06-21T04:28:35.936Z,8.30
2018-06-21T04:31:04.315Z,6.83
2018-06-21T04:33:32.756Z,10.83
2018-06-21T04:36:01.118Z,8.30
2018-06-21T04:38:29.955Z,10.00
2018-06-21T04:40:58.396Z,11.90
2018-06-21T04:43:26.787Z,7.43
2018-06-21T04:45:55.209Z,7.47
2018-06-21T04:48:23.793Z,7.27
2018-06-21T04:50:52.223Z,9.10
2018-06-21T04:53:20.726Z,9.20
2018-06-21T04:55:49.086Z,4.83
2018-06-21T04:58:17.489Z,8.83
2018-06-21T05:00:46.103Z,7.80
2018-06-21T05:03:14.493Z,6.27
2018-06-21T05:05:43.057Z,11.07
2018-06-21T05:08:11.551Z,7.43
2018-06-21T05:10:39.910Z,6.83
2018-06-21T05:13:08.342Z,8.73
2018-06-21T05:15:36.758Z,7.60
2018-06-21T05:18:05.497Z,8.33
2018-06-21T05:20:33.929Z,8.10
2018-06-21T05:23:02.286Z,7.83
2018-06-21T05:25:30.715Z,8.20
2018-06-21T05:27:59.097Z,9.10
2018-06-21T05:30:27.432Z,6.80
2018-06-21T05:32:56.117Z,7.60
2018-06-21T05:35:24.474Z,8.43
2018-06-21T05:37:52.836Z,7.77
2018-06-21T05:40:31.444Z,8.97
2018-06-21T05:43:00.897Z,7.70
2018-06-21T05:45:29.947Z,9.37
2018-06-21T05:48:00.133Z,7.23
2018-06-21T05:50:29.781Z,5.93
2018-06-21T05:52:58.965Z,8.57
2018-06-21T05:55:27.731Z,6.23
2018-06-21T05:57:56.130Z,6.60
2018-06-21T06:00:24.659Z,5.40
2018-06-21T06:02:53.419Z,6.23
2018-06-21T06:05:21.895Z,6.00
2018-06-21T06:07:50.317Z,11.00
2018-06-21T06:10:18.686Z,7.37
2018-06-21T06:12:47.008Z,9.37
2018-06-21T06:15:15.333Z,5.40
2018-06-21T06:17:43.659Z,5.63
2018-06-21T06:20:11.949Z,7.87
2018-06-21T06:22:40.309Z,9.33
2018-06-21T06:25:08.623Z,5.57
2018-06-21T06:27:36.980Z,5.13
2018-06-21T06:30:06.372Z,9.37
2018-06-21T06:32:34.950Z,5.87
2018-06-21T06:35:03.360Z,6.40
2018-06-21T06:37:31.737Z,7.60
2018-06-21T06:40:00.091Z,10.53
2018-06-21T06:42:28.457Z,8.67
2018-06-21T06:44:56.816Z,8.60
2018-06-21T06:47:25.582Z,9.20
2018-06-21T06:49:54.106Z,7.87
2018-06-21T06:52:22.830Z,6.20
2018-06-21T06:54:51.608Z,10.33
2018-06-21T06:57:20.251Z,6.53
2018-06-21T06:59:48.616Z,7.53
2018-06-21T07:02:16.960Z,11.20
2018-06-21T07:04:45.347Z,7.57
2018-06-21T07:07:13.889Z,7.80
2018-06-21T07:09:42.178Z,6.80
2018-06-21T07:12:10.954Z,7.00
2018-06-21T07:14:39.236Z,6.43
2018-06-21T07:17:07.531Z,6.80
2018-06-21T07:19:35.884Z,8.00
2018-06-21T07:22:04.143Z,7.70
2018-06-21T07:24:32.419Z,8.07
2018-06-21T07:27:00.711Z,4.20
2018-06-21T07:29:28.894Z,8.37
2018-06-21T07:31:57.365Z,5.93
2018-06-21T07:34:25.635Z,11.80
2018-06-21T07:36:53.889Z,7.07
2018-06-21T07:39:22.162Z,8.77
2018-06-21T07:41:50.439Z,8.30
2018-06-21T07:44:18.761Z,8.77
2018-06-21T07:46:47.069Z,8.03
2018-06-21T07:49:15.525Z,9.67
2018-06-21T07:51:43.929Z,7.60
2018-06-21T07:54:12.207Z,11.40
2018-06-21T07:56:41.160Z,6.67
2018-06-21T07:59:09.558Z,10.27
2018-06-21T08:01:38.041Z,7.13
2018-06-21T08:04:06.518Z,9.73
2018-06-21T08:06:34.894Z,7.43
2018-06-21T08:09:04.710Z,9.40
2018-06-21T08:11:32.990Z,8.47
2018-06-21T08:14:01.284Z,6.30
2018-06-21T08:16:29.835Z,10.10
2018-06-21T08:18:58.142Z,15.67
2018-06-21T08:21:26.407Z,7.33
2018-06-21T08:23:54.706Z,9.20
2018-06-21T08:26:22.980Z,12.60
2018-06-21T08:28:51.277Z,9.00
2018-06-21T08:31:19.535Z,12.60
2018-06-21T08:33:47.805Z,14.90
2018-06-21T08:36:16.071Z,6.13
2018-06-21T08:38:44.350Z,7.80
2018-06-21T08:41:12.932Z,10.90
2018-06-21T08:43:41.230Z,4.67
2018-06-21T08:46:09.570Z,6.57
2018-06-21T08:48:37.995Z,9.43
2018-06-21T08:51:07.864Z,7.07
2018-06-21T08:53:36.447Z,9.33
2018-06-21T08:56:04.731Z,12.03
2018-06-21T08:58:32.999Z,10.40
2018-06-21T09:01:01.303Z,10.27
2018-06-21T09:03:29.643Z,7.57
2018-06-21T09:05:57.948Z,9.23
2018-06-21T09:08:26.245Z,8.07
2018-06-21T09:10:54.485Z,8.50
2018-06-21T09:13:23.027Z,6.87
2018-06-21T09:15:51.323Z,12.80
2018-06-21T09:18:19.631Z,6.53
2018-06-21T09:20:48.219Z,5.43
2018-06-21T09:23:16.531Z,12.90
2018-06-21T09:25:44.809Z,10.23
2018-06-21T09:28:13.044Z,7.20
2018-06-21T09:30:41.304Z,8.40
2018-06-21T09:33:09.610Z,12.93
2018-06-21T09:35:38.056Z,6.20
2018-06-21T09:40:53.456Z,9.07
2018-06-21T09:43:26.973Z,6.03
2018-06-21T09:46:00.912Z,10.57
2018-06-21T09:48:30.581Z,4.43
2018-06-21T09:51:00.034Z,7.30
2018-06-21T09:53:28.745Z,9.10
2018-06-21T09:55:57.688Z,5.57
2018-06-21T09:58:25.975Z,7.77
2018-06-21T10:00:59.611Z,7.30
2018-06-21T10:03:27.940Z,7.30
2018-06-21T10:05:56.455Z,10.20
2018-06-21T10:08:24.734Z,6.60
2018-06-21T10:10:53.031Z,9.00
2018-06-21T10:13:21.354Z,6.80
2018-06-21T10:15:49.711Z,7.70
2018-06-21T10:18:18.426Z,9.70
2018-06-21T10:20:46.766Z,7.30
2018-06-21T10:23:15.056Z,7.53
2018-06-21T10:25:43.305Z,5.77
2018-06-21T10:28:11.572Z,7.57
2018-06-21T10:30:39.811Z,8.97
2018-06-21T10:33:08.083Z,9.37
2018-06-21T10:35:36.360Z,6.13
2018-06-21T10:38:04.645Z,8.23
2018-06-21T10:40:32.884Z,7.17
2018-06-21T10:43:01.142Z,5.23
2018-06-21T10:45:29.401Z,7.53
2018-06-21T10:47:57.680Z,6.27
2018-06-21T10:50:25.964Z,8.33
2018-06-21T10:52:54.238Z,6.13
2018-06-21T10:55:22.508Z,4.47
2018-06-21T10:57:50.785Z,5.57
2018-06-21T11:00:19.091Z,7.03
2018-06-21T11:02:47.387Z,9.20
2018-06-21T11:05:15.823Z,7.07
2018-06-21T11:07:44.084Z,8.30
2018-06-21T11:10:12.576Z,11.60
2018-06-21T11:12:40.860Z,6.90
2018-06-21T11:15:09.144Z,7.67
2018-06-21T11:17:37.577Z,7.37
2018-06-21T11:20:06.211Z,6.37
2018-06-21T11:22:34.478Z,8.73
2018-06-21T11:25:02.789Z,9.93
2018-06-21T11:27:31.096Z,9.53
2018-06-21T11:29:59.363Z,7.50
2018-06-21T11:32:27.653Z,6.53
2018-06-21T11:34:55.923Z,6.67
2018-06-21T11:37:24.201Z,10.80
2018-06-21T11:39:52.489Z,6.67
2018-06-21T11:42:20.787Z,4.67
2018-06-21T11:44:49.108Z,5.53
2018-06-21T11:47:17.376Z,7.63
2018-06-21T11:49:45.644Z,6.43
2018-06-21T11:52:14.017Z,9.03
2018-06-21T11:54:42.443Z,8.03
2018-06-21T11:57:10.738Z,6.27
2018-06-21T11:59:39.135Z,8.07
2018-06-21T12:02:07.366Z,7.20
2018-06-21T12:04:35.423Z,8.13
2018-06-21T12:07:03.692Z,9.17
2018-06-21T12:09:31.965Z,5.10
2018-06-21T12:12:00.235Z,13.20
2018-06-21T12:14:28.667Z,9.57
2018-06-21T12:16:56.951Z,7.20
2018-06-21T12:19:25.257Z,6.77
2018-06-21T12:21:53.529Z,4.50
2018-06-21T12:24:21.842Z,7.77
2018-06-21T12:26:50.112Z,7.67
2018-06-21T12:29:18.395Z,8.70
2018-06-21T12:31:46.711Z,7.03
2018-06-21T12:34:14.984Z,5.97
2018-06-21T12:36:43.268Z,9.63
2018-06-21T12:39:11.540Z,7.10
2018-06-21T12:41:39.866Z,5.13
2018-06-21T12:44:08.131Z,6.67
2018-06-21T12:46:36.519Z,7.97
2018-06-21T12:49:04.810Z,5.97
2018-06-21T12:51:33.227Z,4.90
2018-06-21T12:54:01.562Z,3.33
2018-06-21T12:56:29.858Z,8.33
2018-06-21T12:58:58.098Z,7.50
2018-06-21T13:01:26.379Z,5.90
2018-06-21T13:03:54.662Z,9.87
2018-06-21T13:06:22.946Z,7.43
2018-06-21T13:09:02.648Z,5.77
2018-06-21T13:11:40.926Z,9.53
2018-06-21T13:14:22.683Z,8.17
2018-06-21T13:16:50.982Z,8.50
2018-06-21T13:19:19.270Z,6.83
2018-06-21T13:21:47.563Z,9.77
2018-06-21T13:24:15.823Z,8.10
2018-06-21T13:26:44.070Z,5.07
2018-06-21T13:29:12.327Z,4.63
2018-06-21T13:31:40.595Z,7.00
2018-06-21T13:34:08.850Z,5.97
2018-06-21T13:36:37.154Z,7.63
2018-06-21T13:39:07.059Z,8.23
2018-06-21T13:41:35.330Z,9.77
2018-06-21T13:44:03.578Z,5.10
2018-06-21T13:46:31.936Z,10.03
2018-06-21T13:49:00.246Z,8.07
2018-06-21T13:51:28.541Z,11.40
2018-06-21T13:53:56.796Z,7.83
2018-06-21T13:56:25.119Z,7.73
2018-06-21T13:58:53.388Z,9.37
2018-06-21T14:01:22.073Z,6.23
2018-06-21T14:03:50.362Z,6.77
2018-06-21T14:06:18.627Z,10.77
2018-06-21T14:08:46.908Z,10.83
2018-06-21T14:11:15.476Z,11.87
2018-06-21T14:13:43.751Z,8.50
2018-06-21T14:16:12.078Z,11.17
2018-06-21T14:18:40.590Z,9.50
2018-06-21T14:21:08.864Z,10.30
2018-06-21T14:23:37.182Z,8.43
2018-06-21T14:26:05.911Z,7.00
2018-06-21T14:28:34.576Z,11.03
2018-06-21T14:31:02.919Z,11.17
2018-06-21T14:33:30.970Z,5.23
2018-06-21T14:35:59.791Z,7.72
2018-06-21T14:38:28.640Z,10.60
2018-06-21T14:40:57.556Z,9.25
2018-06-21T14:43:26.400Z,15.28
2018-06-21T14:45:55.272Z,11.70
2018-06-21T14:48:23.631Z,8.77
2018-06-21T14:50:52.064Z,8.67
2018-06-21T14:53:20.340Z,13.67
2018-06-21T14:55:48.677Z,8.98
2018-06-21T14:58:17.596Z,7.58
2018-06-21T15:00:46.546Z,9.63
2018-06-21T15:03:15.108Z,7.87
2018-06-21T15:05:43.453Z,5.80
2018-06-21T15:08:11.784Z,6.87
2018-06-21T15:10:40.275Z,10.30
2018-06-21T15:13:08.608Z,10.17
2018-06-21T15:15:36.920Z,11.70
2018-06-21T15:18:05.551Z,12.33
2018-06-21T15:20:34.189Z,11.30
2018-06-21T15:23:02.433Z,10.23
2018-06-21T15:25:31.197Z,18.50
2018-06-21T15:27:59.490Z,7.60
2018-06-21T15:30:28.097Z,10.33
2018-06-21T15:32:56.960Z,11.57
2018-06-21T15:35:25.274Z,11.10
2018-06-21T15:37:53.557Z,6.13
2018-06-21T15:40:21.865Z,11.13
2018-06-21T15:42:50.180Z,9.30
2018-06-21T15:45:18.501Z,7.47
2018-06-21T15:47:46.930Z,11.07
2018-06-21T15:50:15.265Z,7.73
2018-06-21T15:52:43.599Z,12.77
2018-06-21T15:55:11.933Z,13.10
2018-06-21T15:57:40.464Z,9.60
2018-06-21T16:00:10.781Z,8.57
2018-06-21T16:02:40.529Z,9.20
2018-06-21T16:05:09.415Z,10.33
2018-06-21T16:07:38.546Z,6.60
2018-06-21T16:10:07.413Z,5.70
2018-06-21T16:12:36.250Z,3.08
2018-06-21T16:15:05.136Z,7.03
2018-06-21T16:17:33.979Z,4.97
2018-06-21T16:20:02.884Z,9.75
2018-06-21T16:22:31.709Z,4.80
2018-06-21T16:25:00.026Z,6.00
2018-06-21T16:27:28.888Z,6.58
2018-06-21T16:29:57.767Z,6.75
2018-06-21T16:32:26.614Z,6.67
2018-06-21T16:34:55.874Z,4.92
2018-06-21T16:37:24.860Z,5.00
2018-06-21T16:39:53.742Z,5.05
2018-06-21T16:42:22.558Z,8.83
2018-06-21T16:44:51.400Z,7.35
2018-06-21T16:47:20.265Z,5.28
2018-06-21T16:49:49.101Z,5.50
2018-06-21T16:52:17.622Z,6.93
2018-06-21T16:54:45.921Z,6.93
2018-06-21T16:57:14.257Z,4.93
2018-06-21T16:59:42.778Z,7.63
2018-06-21T17:02:11.189Z,5.23
2018-06-21T17:04:39.741Z,6.77
2018-06-21T17:07:08.560Z,8.93
2018-06-21T17:09:37.457Z,6.50
2018-06-21T17:12:06.515Z,8.45
2018-06-21T17:14:35.641Z,10.50
2018-06-21T17:17:04.076Z,7.20
2018-06-21T17:19:32.792Z,9.13
2018-06-21T17:22:01.321Z,10.60
2018-06-21T17:24:29.625Z,9.33
2018-06-21T17:26:57.892Z,8.80
2018-06-21T17:29:26.239Z,8.87
2018-06-21T17:31:54.911Z,5.03
2018-06-21T17:34:23.262Z,7.80
2018-06-21T17:36:51.584Z,7.50
2018-06-21T17:39:20.101Z,8.40
2018-06-21T17:41:48.425Z,6.63
2018-06-21T17:44:16.743Z,8.30
2018-06-21T17:46:45.246Z,6.67
2018-06-21T17:49:13.549Z,7.93
2018-06-21T17:51:41.824Z,8.50
2018-06-21T17:54:10.186Z,10.23
2018-06-21T17:56:38.658Z,7.90
2018-06-21T17:59:07.048Z,6.23
2018-06-21T18:01:35.623Z,9.07
2018-06-21T18:04:03.964Z,8.43
2018-06-21T18:06:32.260Z,6.93
2018-06-21T18:09:00.659Z,7.20
2018-06-21T18:11:28.999Z,8.77
2018-06-21T18:13:57.287Z,5.33
2018-06-21T18:16:25.829Z,9.43
2018-06-21T18:18:54.491Z,8.30
2018-06-21T18:21:22.862Z,7.07
2018-06-21T18:23:50.900Z,13.30
2018-06-21T18:26:19.193Z,6.67
2018-06-21T18:28:47.528Z,6.80
2018-06-21T18:31:15.872Z,11.37
2018-06-21T18:33:44.284Z,8.63
2018-06-21T18:36:13.024Z,6.33
2018-06-21T18:38:41.341Z,7.67
2018-06-21T18:41:10.011Z,8.30
2018-06-21T18:43:41.864Z,5.93
2018-06-21T18:46:10.206Z,8.43
2018-06-21T18:48:38.537Z,8.47
2018-06-21T18:51:07.003Z,6.60
2018-06-21T18:53:35.310Z,9.67
2018-06-21T18:56:03.672Z,7.73
2018-06-21T18:58:32.016Z,8.23
2018-06-21T19:01:00.364Z,6.67
2018-06-21T19:03:28.680Z,10.03
2018-06-21T19:05:57.035Z,10.53
2018-06-21T19:08:30.683Z,8.60
2018-06-21T19:11:04.498Z,10.43
2018-06-21T19:13:32.827Z,8.03
2018-06-21T19:16:02.289Z,5.87
2018-06-21T19:18:32.098Z,9.80
2018-06-21T19:21:03.492Z,6.40
2018-06-21T19:23:32.866Z,4.00
2018-06-21T19:26:01.856Z,11.37
2018-06-21T19:28:30.670Z,5.87
2018-06-21T19:30:59.734Z,9.87
2018-06-21T19:33:29.559Z,8.50
2018-06-21T19:35:58.562Z,8.83
2018-06-21T19:38:28.526Z,5.33
2018-06-21T19:40:57.207Z,6.23
2018-06-21T19:43:27.488Z,6.60
2018-06-21T19:45:57.395Z,10.50
2018-06-21T19:48:25.990Z,6.47
2018-06-21T19:50:55.532Z,7.27
2018-06-21T19:53:24.229Z,6.37
2018-06-21T19:55:52.832Z,8.50
2018-06-21T19:58:21.175Z,6.97
2018-06-21T20:00:50.919Z,4.80
2018-06-21T20:03:20.417Z,6.27
2018-06-21T20:05:49.128Z,8.67
2018-06-21T20:08:18.244Z,2.83
2018-06-21T20:10:51.924Z,5.63
2018-06-21T20:13:20.708Z,8.03
2018-06-21T20:15:51.320Z,5.97
2018-06-21T20:18:20.261Z,6.80
2018-06-21T20:20:48.349Z,4.93
2018-06-21T20:23:18.231Z,6.23
2018-06-21T20:25:46.681Z,4.03
2018-06-21T20:28:15.856Z,7.43
2018-06-21T20:30:44.563Z,4.77
2018-06-21T20:33:13.073Z,8.13
2018-06-21T20:35:41.910Z,5.37
2018-06-21T20:38:10.288Z,6.50
2018-06-21T20:40:39.439Z,4.23
2018-06-21T20:43:07.873Z,5.53
2018-06-21T20:45:45.833Z,6.57
2018-06-21T20:48:14.208Z,5.37
2018-06-21T20:50:45.777Z,7.00
2018-06-21T20:53:14.119Z,6.13
2018-06-21T20:55:43.393Z,5.70
2018-06-21T20:58:11.694Z,6.07
2018-06-21T21:00:40.103Z,5.13
2018-06-21T21:03:08.621Z,9.87
2018-06-21T21:05:36.979Z,7.33
2018-06-21T21:08:05.417Z,7.67
2018-06-21T21:10:33.734Z,7.93
2018-06-21T21:13:02.537Z,7.37
2018-06-21T21:15:31.922Z,7.37
2018-06-21T21:18:00.867Z,9.17
2018-06-21T21:20:29.882Z,7.93
2018-06-21T21:22:58.649Z,9.80
2018-06-21T21:25:27.205Z,13.40
2018-06-21T21:27:55.801Z,7.30
2018-06-21T21:30:24.288Z,9.70
2018-06-21T21:32:52.682Z,9.33
2018-06-21T21:35:20.973Z,8.33
2018-06-21T21:37:49.262Z,6.63
2018-06-21T21:40:17.574Z,11.60
2018-06-21T21:42:45.918Z,6.60
2018-06-21T21:45:14.249Z,9.90
2018-06-21T21:47:42.561Z,12.30
2018-06-21T21:50:10.831Z,7.93
2018-06-21T21:52:39.238Z,9.43
2018-06-21T21:55:07.679Z,7.60
2018-06-21T21:57:35.984Z,5.47
2018-06-21T22:00:05.608Z,8.77
2018-06-21T22:02:33.904Z,11.03
2018-06-21T22:05:02.965Z,8.97
2018-06-21T22:07:31.319Z,11.73
2018-06-21T22:09:59.573Z,8.70
2018-06-21T22:12:27.819Z,5.80
2018-06-21T22:14:56.084Z,7.53
2018-06-21T22:17:24.344Z,9.57
2018-06-21T22:19:52.676Z,9.37
2018-06-21T22:22:20.948Z,10.83
2018-06-21T22:24:49.239Z,6.93
2018-06-21T22:27:17.494Z,12.60
2018-06-21T22:29:45.760Z,8.40
2018-06-21T22:32:14.082Z,12.00
2018-06-21T22:34:42.384Z,9.33
2018-06-21T22:37:10.632Z,3.13
2018-06-21T22:39:38.936Z,8.37
2018-06-21T22:42:07.195Z,7.13
2018-06-21T22:44:35.471Z,12.13
2018-06-21T22:47:03.726Z,11.07
2018-06-21T22:49:31.997Z,9.10
2018-06-21T22:52:00.260Z,9.30
2018-06-21T22:54:28.507Z,7.13
2018-06-21T22:56:56.768Z,8.80
2018-06-21T22:59:25.073Z,8.00
2018-06-21T23:01:53.341Z,7.70
2018-06-21T23:04:21.673Z,10.83
2018-06-21T23:06:49.991Z,10.27
2018-06-21T23:09:18.736Z,8.70
2018-06-21T23:11:47.002Z,9.40
2018-06-21T23:14:15.284Z,9.57
2018-06-21T23:16:43.546Z,9.90
2018-06-21T23:19:24.166Z,7.53
2018-06-21T23:21:52.420Z,6.90
2018-06-21T23:24:20.683Z,13.43
2018-06-21T23:26:49.104Z,9.73
2018-06-21T23:29:17.629Z,8.50
2018-06-21T23:31:45.916Z,12.33
2018-06-21T23:34:14.258Z,8.97
2018-06-21T23:36:42.529Z,8.87
2018-06-21T23:39:11.689Z,11.10
2018-06-21T23:41:40.712Z,5.30
2018-06-21T23:44:09.194Z,8.43
2018-06-21T23:46:37.565Z,7.87
2018-06-21T23:49:06.161Z,10.30
2018-06-21T23:51:34.644Z,8.70
2018-06-21T23:54:02.899Z,7.57
2018-06-21T23:56:31.177Z,10.70
2018-06-21T23:58:59.425Z,8.90
